Saavedra, Argentina
Current Conditions -  °F | °C
As of 6:00 PM on Sunday 21 Dec 2014 (Local Time) from SAZM Reporting Station
Broken Clouds Broken Clouds  
Wind Chill: 17°   Ceiling: 9000
Heat Index: 17°   Visibility: 6mi
Dew Point:   Wind: 14mph
Humidity: 42%   Direction: 160°SSE
Pressure: 29.83"   Gusts: NA
Location:  37.75°S, 62.37°W
Report Text: SAZM 212100Z 16012KT 9999 SCT025 BKN09017/04 Q1010
Loading
Personal Weather Stations






























Interactive Weather Map New forecast layout! Learn more

10-Day Weather Forecast

Advertisements
Track Severe Weather on mobile